sensor_id;sensor_type;location;lat;lon;timestamp;pressure;altitude;pressure_sealevel;temperature;humidity
19890;BME280;10107;51.198;6.824;2022-09-11T00:03:26;-21720.75;;;15.40;100.00
19890;BME280;10107;51.198;6.824;2022-09-11T00:07:30;-21718.50;;;15.32;100.00
19890;BME280;10107;51.198;6.824;2022-09-11T00:11:35;-21716.28;;;15.23;100.00
19890;BME280;10107;51.198;6.824;2022-09-11T00:15:42;-21714.03;;;15.14;100.00
19890;BME280;10107;51.198;6.824;2022-09-11T00:19:44;-21712.31;;;15.08;100.00
19890;BME280;10107;51.198;6.824;2022-09-11T00:23:47;-21710.09;;;14.99;100.00
19890;BME280;10107;51.198;6.824;2022-09-11T00:27:49;-21708.25;;;14.92;100.00
19890;BME280;10107;51.198;6.824;2022-09-11T00:31:51;-21707.59;;;14.89;100.00
19890;BME280;10107;51.198;6.824;2022-09-11T00:35:54;-21706.00;;;14.83;100.00
19890;BME280;10107;51.198;6.824;2022-09-11T00:39:59;-21705.22;;;14.80;100.00
19890;BME280;10107;51.198;6.824;2022-09-11T00:44:03;-21703.78;;;14.74;100.00
19890;BME280;10107;51.198;6.824;2022-09-11T00:48:08;-21701.94;;;14.67;100.00
19890;BME280;10107;51.198;6.824;2022-09-11T00:52:16;-21699.69;;;14.58;100.00
19890;BME280;10107;51.198;6.824;2022-09-11T00:56:20;-21698.25;;;14.53;100.00
19890;BME280;10107;51.198;6.824;2022-09-11T01:00:23;-21700.63;;;14.62;100.00
19890;BME280;10107;51.198;6.824;2022-09-11T01:04:25;-21705.34;;;14.80;100.00
19890;BME280;10107;51.198;6.824;2022-09-11T01:08:28;-21709.16;;;14.95;100.00
19890;BME280;10107;51.198;6.824;2022-09-11T01:12:35;-21712.31;;;15.08;100.00
19890;BME280;10107;51.198;6.824;2022-09-11T01:16:47;-21715.22;;;15.19;100.00
19890;BME280;10107;51.198;6.824;2022-09-11T01:21:07;-21717.84;;;15.29;100.00
19890;BME280;10107;51.198;6.824;2022-09-11T01:25:23;-21720.59;;;15.40;100.00
19890;BME280;10107;51.198;6.824;2022-09-11T01:29:33;-21722.19;;;15.46;100.00
19890;BME280;10107;51.198;6.824;2022-09-11T01:33:42;-21722.72;;;15.48;100.00
19890;BME280;10107;51.198;6.824;2022-09-11T01:37:49;-21724.16;;;15.54;100.00
19890;BME280;10107;51.198;6.824;2022-09-11T01:41:58;-21725.88;;;15.60;100.00
19890;BME280;10107;51.198;6.824;2022-09-11T01:46:05;-21727.44;;;15.67;100.00
19890;BME280;10107;51.198;6.824;2022-09-11T01:50:11;-21728.63;;;15.71;100.00
19890;BME280;10107;51.198;6.824;2022-09-11T01:54:18;-21728.75;;;15.72;100.00
19890;BME280;10107;51.198;6.824;2022-09-11T01:58:26;-21729.53;;;15.75;100.00
19890;BME280;10107;51.198;6.824;2022-09-11T02:02:36;-21729.53;;;15.75;100.00
19890;BME280;10107;51.198;6.824;2022-09-11T02:06:45;-21730.72;;;15.79;100.00
19890;BME280;10107;51.198;6.824;2022-09-11T02:10:52;-21731.25;;;15.81;100.00
19890;BME280;10107;51.198;6.824;2022-09-11T02:14:55;-21731.13;;;15.81;100.00
19890;BME280;10107;51.198;6.824;2022-09-11T02:19:02;-21731.38;;;15.82;100.00
19890;BME280;10107;51.198;6.824;2022-09-11T02:23:04;-21731.00;;;15.80;100.00
19890;BME280;10107;51.198;6.824;2022-09-11T02:27:09;-21730.84;;;15.80;100.00
19890;BME280;10107;51.198;6.824;2022-09-11T02:31:12;-21730.84;;;15.80;100.00
19890;BME280;10107;51.198;6.824;2022-09-11T02:35:16;-21730.59;;;15.79;100.00
19890;BME280;10107;51.198;6.824;2022-09-11T02:39:36;-21731.25;;;15.81;100.00
19890;BME280;10107;51.198;6.824;2022-09-11T02:43:53;-21731.66;;;15.83;100.00
19890;BME280;10107;51.198;6.824;2022-09-11T02:48:06;-21731.66;;;15.83;100.00
19890;BME280;10107;51.198;6.824;2022-09-11T02:52:27;-21731.25;;;15.81;100.00
19890;BME280;10107;51.198;6.824;2022-09-11T02:56:38;-21731.13;;;15.81;100.00
19890;BME280;10107;51.198;6.824;2022-09-11T03:00:44;-21731.13;;;15.81;100.00
19890;BME280;10107;51.198;6.824;2022-09-11T03:04:48;-21731.13;;;15.81;100.00
19890;BME280;10107;51.198;6.824;2022-09-11T03:08:53;-21731.13;;;15.81;100.00
19890;BME280;10107;51.198;6.824;2022-09-11T03:12:56;-21731.13;;;15.81;100.00
19890;BME280;10107;51.198;6.824;2022-09-11T03:16:59;-21737.16;;;16.04;100.00
19890;BME280;10107;51.198;6.824;2022-09-11T03:21:01;-21736.09;;;16.00;100.00
19890;BME280;10107;51.198;6.824;2022-09-11T03:25:06;-21734.94;;;15.96;100.00
19890;BME280;10107;51.198;6.824;2022-09-11T03:29:09;-21734.94;;;15.96;100.00
19890;BME280;10107;51.198;6.824;2022-09-11T03:33:11;-21736.38;;;16.01;100.00
19890;BME280;10107;51.198;6.824;2022-09-11T03:37:13;-21735.59;;;15.98;100.00
19890;BME280;10107;51.198;6.824;2022-09-11T03:41:17;-21735.59;;;15.98;100.00
19890;BME280;10107;51.198;6.824;2022-09-11T03:45:19;-21736.38;;;16.01;100.00
19890;BME280;10107;51.198;6.824;2022-09-11T03:49:21;-21733.75;;;15.91;100.00
19890;BME280;10107;51.198;6.824;2022-09-11T03:53:24;-21736.50;;;16.02;100.00
19890;BME280;10107;51.198;6.824;2022-09-11T03:57:27;59915.94;;;-146.72;100.00
19890;BME280;10107;51.198;6.824;2022-09-11T04:01:29;-21733.47;;;15.90;100.00
19890;BME280;10107;51.198;6.824;2022-09-11T04:05:31;-21732.44;;;15.86;100.00
19890;BME280;10107;51.198;6.824;2022-09-11T04:09:34;-21731.13;;;15.81;100.00
19890;BME280;10107;51.198;6.824;2022-09-11T04:13:39;-21730.84;;;15.80;100.00
19890;BME280;10107;51.198;6.824;2022-09-11T04:17:45;-21729.81;;;15.76;100.00
19890;BME280;10107;51.198;6.824;2022-09-11T04:21:50;-21728.88;;;15.72;100.00
19890;BME280;10107;51.198;6.824;2022-09-11T04:25:51;-21727.84;;;15.68;100.00
19890;BME280;10107;51.198;6.824;2022-09-11T04:29:55;-21727.84;;;15.68;100.00
19890;BME280;10107;51.198;6.824;2022-09-11T04:33:56;-21726.25;;;15.62;100.00
19890;BME280;10107;51.198;6.824;2022-09-11T04:38:04;-21725.59;;;15.59;100.00
19890;BME280;10107;51.198;6.824;2022-09-11T04:42:08;-21725.47;;;15.59;100.00
19890;BME280;10107;51.198;6.824;2022-09-11T04:46:14;-21724.94;;;15.57;100.00
19890;BME280;10107;51.198;6.824;2022-09-11T04:50:18;-21723.88;;;15.53;100.00
19890;BME280;10107;51.198;6.824;2022-09-11T04:54:40;-21723.22;;;15.50;100.00
19890;BME280;10107;51.198;6.824;2022-09-11T04:58:43;-21722.97;;;15.49;100.00
19890;BME280;10107;51.198;6.824;2022-09-11T05:02:47;-21722.97;;;15.49;100.00
19890;BME280;10107;51.198;6.824;2022-09-11T05:06:49;-21723.09;;;15.50;100.00
19890;BME280;10107;51.198;6.824;2022-09-11T05:10:52;-21723.50;;;15.51;100.00
19890;BME280;10107;51.198;6.824;2022-09-11T05:14:54;-21724.03;;;15.53;100.00
19890;BME280;10107;51.198;6.824;2022-09-11T05:18:58;-21724.16;;;15.54;100.00
19890;BME280;10107;51.198;6.824;2022-09-11T05:23:01;-21723.50;;;15.51;100.00
19890;BME280;10107;51.198;6.824;2022-09-11T05:27:04;-21723.38;;;15.51;100.00
19890;BME280;10107;51.198;6.824;2022-09-11T05:31:10;-21722.97;;;15.49;100.00
19890;BME280;10107;51.198;6.824;2022-09-11T05:35:14;-21723.22;;;15.50;100.00
19890;BME280;10107;51.198;6.824;2022-09-11T05:39:17;-21724.53;;;15.55;100.00
19890;BME280;10107;51.198;6.824;2022-09-11T05:43:19;-21725.06;;;15.57;100.00
19890;BME280;10107;51.198;6.824;2022-09-11T05:47:22;-21725.34;;;15.58;100.00
19890;BME280;10107;51.198;6.824;2022-09-11T05:51:29;-21727.56;;;15.67;100.00
19890;BME280;10107;51.198;6.824;2022-09-11T05:55:35;-21729.16;;;15.73;100.00
19890;BME280;10107;51.198;6.824;2022-09-11T05:59:37;-21730.19;;;15.77;100.00
19890;BME280;10107;51.198;6.824;2022-09-11T06:03:40;-21731.38;;;15.82;100.00
19890;BME280;10107;51.198;6.824;2022-09-11T06:07:45;-21731.25;;;15.81;100.00
19890;BME280;10107;51.198;6.824;2022-09-11T06:11:47;-21732.56;;;15.87;100.00
19890;BME280;10107;51.198;6.824;2022-09-11T06:15:50;-21732.69;;;15.87;100.00
19890;BME280;10107;51.198;6.824;2022-09-11T06:19:51;-21732.56;;;15.87;100.00
19890;BME280;10107;51.198;6.824;2022-09-11T06:23:56;-21733.88;;;15.92;100.00
19890;BME280;10107;51.198;6.824;2022-09-11T06:27:58;-21735.97;;;16.00;100.00
19890;BME280;10107;51.198;6.824;2022-09-11T06:32:01;-21737.16;;;16.04;100.00
19890;BME280;10107;51.198;6.824;2022-09-11T06:36:08;-21737.94;;;16.08;100.00
19890;BME280;10107;51.198;6.824;2022-09-11T06:40:12;-21740.03;;;16.16;100.00
19890;BME280;10107;51.198;6.824;2022-09-11T06:44:14;-21741.75;;;16.22;100.00
19890;BME280;10107;51.198;6.824;2022-09-11T06:48:17;-21743.06;;;16.28;100.00
19890;BME280;10107;51.198;6.824;2022-09-11T06:52:19;-21743.19;;;16.28;100.00
19890;BME280;10107;51.198;6.824;2022-09-11T06:56:38;-21743.06;;;16.28;100.00
19890;BME280;10107;51.198;6.824;2022-09-11T07:00:40;-21742.28;;;16.24;100.00
19890;BME280;10107;51.198;6.824;2022-09-11T07:04:44;-21739.78;;;16.15;100.00
19890;BME280;10107;51.198;6.824;2022-09-11T07:08:49;-21738.06;;;16.08;100.00
19890;BME280;10107;51.198;6.824;2022-09-11T07:12:53;-21737.81;;;16.07;100.00
19890;BME280;10107;51.198;6.824;2022-09-11T07:16:57;-21739.13;;;16.12;100.00
19890;BME280;10107;51.198;6.824;2022-09-11T07:21:03;-21739.91;;;16.15;100.00
19890;BME280;10107;51.198;6.824;2022-09-11T07:25:06;-21739.78;;;16.15;100.00
19890;BME280;10107;51.198;6.824;2022-09-11T07:29:12;-21738.72;;;16.11;100.00
19890;BME280;10107;51.198;6.824;2022-09-11T07:33:14;-21739.78;;;16.15;100.00
19890;BME280;10107;51.198;6.824;2022-09-11T07:37:16;-21740.56;;;16.18;100.00
19890;BME280;10107;51.198;6.824;2022-09-11T07:41:20;-21741.09;;;16.20;100.00
19890;BME280;10107;51.198;6.824;2022-09-11T07:45:27;-21741.34;;;16.21;100.00
19890;BME280;10107;51.198;6.824;2022-09-11T07:49:28;-21743.06;;;16.28;100.00
19890;BME280;10107;51.198;6.824;2022-09-11T07:53:32;-21745.56;;;16.37;100.00
19890;BME280;10107;51.198;6.824;2022-09-11T07:57:35;-21748.31;;;16.48;100.00
19890;BME280;10107;51.198;6.824;2022-09-11T08:01:43;-21749.34;;;16.52;100.00
19890;BME280;10107;51.198;6.824;2022-09-11T08:05:45;-21748.06;;;16.47;100.00
19890;BME280;10107;51.198;6.824;2022-09-11T08:09:47;-21748.19;;;16.48;100.00
19890;BME280;10107;51.198;6.824;2022-09-11T08:13:50;-21750.28;;;16.56;100.00
19890;BME280;10107;51.198;6.824;2022-09-11T08:17:55;-21752.50;;;16.65;100.00
19890;BME280;10107;51.198;6.824;2022-09-11T08:21:57;-21756.56;;;16.80;100.00
19890;BME280;10107;51.198;6.824;2022-09-11T08:26:04;-21755.25;;;16.75;100.00
19890;BME280;10107;51.198;6.824;2022-09-11T08:30:08;-21751.06;;;16.59;100.00
19890;BME280;10107;51.198;6.824;2022-09-11T08:34:11;-21747.13;;;16.43;100.00
19890;BME280;10107;51.198;6.824;2022-09-11T08:38:13;-21744.25;;;16.32;100.00
19890;BME280;10107;51.198;6.824;2022-09-11T08:42:15;-21742.81;;;16.27;100.00
19890;BME280;10107;51.198;6.824;2022-09-11T08:46:22;-21744.38;;;16.33;100.00
19890;BME280;10107;51.198;6.824;2022-09-11T08:50:27;-21745.81;;;16.38;100.00
19890;BME280;10107;51.198;6.824;2022-09-11T08:54:34;-21749.22;;;16.52;100.00
19890;BME280;10107;51.198;6.824;2022-09-11T08:58:45;-21750.53;;;16.57;100.00
19890;BME280;10107;51.198;6.824;2022-09-11T09:03:12;-21751.19;;;16.59;100.00
19890;BME280;10107;51.198;6.824;2022-09-11T09:07:29;-21751.06;;;16.59;100.00
19890;BME280;10107;51.198;6.824;2022-09-11T09:11:38;-21753.69;;;16.69;100.00
19890;BME280;10107;51.198;6.824;2022-09-11T09:15:47;-21756.56;;;16.80;100.00
19890;BME280;10107;51.198;6.824;2022-09-11T09:19:56;-21759.47;;;16.92;100.00
19890;BME280;10107;51.198;6.824;2022-09-11T09:24:06;-21759.31;;;16.91;100.00
19890;BME280;10107;51.198;6.824;2022-09-11T09:28:21;-21760.38;;;16.95;100.00
19890;BME280;10107;51.198;6.824;2022-09-11T09:32:28;-21761.28;;;16.99;100.00
19890;BME280;10107;51.198;6.824;2022-09-11T09:36:35;-21764.06;;;17.10;100.00
19890;BME280;10107;51.198;6.824;2022-09-11T09:40:50;-21767.31;;;17.22;100.00
19890;BME280;10107;51.198;6.824;2022-09-11T09:45:09;-21771.25;;;17.38;100.00
19890;BME280;10107;51.198;6.824;2022-09-11T09:49:19;-21782.38;;;17.81;100.00
19890;BME280;10107;51.198;6.824;2022-09-11T09:53:28;-21804.75;;;18.69;95.91
19890;BME280;10107;51.198;6.824;2022-09-11T09:57:36;-21826.69;;;19.55;91.30
19890;BME280;10107;51.198;6.824;2022-09-11T10:01:44;-21839.47;;;20.06;86.71
19890;BME280;10107;51.198;6.824;2022-09-11T10:05:48;-21845.34;;;20.29;84.80
19890;BME280;10107;51.198;6.824;2022-09-11T10:09:55;-21852.25;;;20.56;84.01
19890;BME280;10107;51.198;6.824;2022-09-11T10:14:03;-21856.41;;;20.72;81.98
19890;BME280;10107;51.198;6.824;2022-09-11T10:18:31;-21867.06;;;21.14;79.21
19890;BME280;10107;51.198;6.824;2022-09-11T10:22:36;-21876.06;;;21.50;76.55
19890;BME280;10107;51.198;6.824;2022-09-11T10:26:40;-21884.63;;;21.84;74.35
19890;BME280;10107;51.198;6.824;2022-09-11T10:30:54;-21895.41;;;22.26;72.23
19890;BME280;10107;51.198;6.824;2022-09-11T10:34:59;-21905.78;;;22.67;70.23
19890;BME280;10107;51.198;6.824;2022-09-11T10:39:01;-21909.28;;;22.81;68.63
19890;BME280;10107;51.198;6.824;2022-09-11T10:43:03;-21899.56;;;22.43;69.18
19890;BME280;10107;51.198;6.824;2022-09-11T10:47:15;-21888.00;;;21.97;71.33
19890;BME280;10107;51.198;6.824;2022-09-11T10:51:18;-21878.53;;;21.60;72.01
19890;BME280;10107;51.198;6.824;2022-09-11T10:55:20;-21874.88;;;21.45;72.13
19890;BME280;10107;51.198;6.824;2022-09-11T10:59:32;-21874.63;;;21.44;73.18
19890;BME280;10107;51.198;6.824;2022-09-11T11:03:37;-21874.63;;;21.44;72.46
19890;BME280;10107;51.198;6.824;2022-09-11T11:07:54;-21890.75;;;22.08;70.00
19890;BME280;10107;51.198;6.824;2022-09-11T11:12:15;-21914.75;;;23.03;66.48
19890;BME280;10107;51.198;6.824;2022-09-11T11:16:23;-21936.25;;;23.88;63.93
19890;BME280;10107;51.198;6.824;2022-09-11T11:20:36;-21933.53;;;23.77;63.04
19890;BME280;10107;51.198;6.824;2022-09-11T11:24:49;-21924.34;;;23.41;62.74
19890;BME280;10107;51.198;6.824;2022-09-11T11:29:11;-21922.91;;;23.35;64.83
19890;BME280;10107;51.198;6.824;2022-09-11T11:33:32;-21999.91;;;26.41;57.07
19890;BME280;10107;51.198;6.824;2022-09-11T11:37:41;-22065.19;;;29.01;46.01
19890;BME280;10107;51.198;6.824;2022-09-11T11:41:46;-22033.50;;;27.75;49.07
19890;BME280;10107;51.198;6.824;2022-09-11T11:45:52;-22005.47;;;26.63;51.16
19890;BME280;10107;51.198;6.824;2022-09-11T11:50:00;-21988.06;;;25.94;52.72
19890;BME280;10107;51.198;6.824;2022-09-11T11:54:11;-21954.75;;;24.61;56.50
19890;BME280;10107;51.198;6.824;2022-09-11T11:58:26;-21932.09;;;23.71;58.04
19890;BME280;10107;51.198;6.824;2022-09-11T12:02:34;-21966.91;;;25.09;54.62
19890;BME280;10107;51.198;6.824;2022-09-11T12:06:39;-22032.22;;;27.70;48.61
19890;BME280;10107;51.198;6.824;2022-09-11T12:10:45;-22081.84;;;29.68;43.56
19890;BME280;10107;51.198;6.824;2022-09-11T12:14:54;-22108.44;;;30.75;40.44
19890;BME280;10107;51.198;6.824;2022-09-11T12:19:04;-22127.19;;;31.50;40.60
19890;BME280;10107;51.198;6.824;2022-09-11T12:24:08;-22137.00;;;31.90;37.44
19890;BME280;10107;51.198;6.824;2022-09-11T12:28:08;-22137.38;;;31.91;36.53
19890;BME280;10107;51.198;6.824;2022-09-11T12:32:22;-22124.75;;;31.41;37.10
19890;BME280;10107;51.198;6.824;2022-09-11T12:36:31;-22107.66;;;30.72;38.28
19890;BME280;10107;51.198;6.824;2022-09-11T12:40:39;-22095.41;;;30.23;37.81
19890;BME280;10107;51.198;6.824;2022-09-11T12:44:55;-22089.25;;;29.98;38.55
19890;BME280;10107;51.198;6.824;2022-09-11T12:49:06;-22085.16;;;29.81;37.96
19890;BME280;10107;51.198;6.824;2022-09-11T12:53:15;-22057.00;;;28.69;40.61
19890;BME280;10107;51.198;6.824;2022-09-11T12:57:22;-22024.13;;;27.37;44.24
19890;BME280;10107;51.198;6.824;2022-09-11T13:01:28;-22024.88;;;27.40;43.26
19890;BME280;10107;51.198;6.824;2022-09-11T13:05:34;-22034.78;;;27.80;43.55
19890;BME280;10107;51.198;6.824;2022-09-11T13:09:39;-22043.91;;;28.16;41.96
19890;BME280;10107;51.198;6.824;2022-09-11T13:13:43;-22040.44;;;28.02;42.42
19890;BME280;10107;51.198;6.824;2022-09-11T13:17:46;-22028.88;;;27.56;43.38
19890;BME280;10107;51.198;6.824;2022-09-11T13:21:50;-22003.53;;;26.55;44.23
19890;BME280;10107;51.198;6.824;2022-09-11T13:25:52;-21978.78;;;25.57;47.25
19890;BME280;10107;51.198;6.824;2022-09-11T13:29:59;-21959.91;;;24.82;49.00
19890;BME280;10107;51.198;6.824;2022-09-11T13:34:04;-21948.28;;;24.36;50.79
19890;BME280;10107;51.198;6.824;2022-09-11T13:38:09;-21942.34;;;24.12;51.69
19890;BME280;10107;51.198;6.824;2022-09-11T13:42:22;-21941.03;;;24.07;50.97
19890;BME280;10107;51.198;6.824;2022-09-11T13:46:27;-21927.56;;;23.53;48.97
19890;BME280;10107;51.198;6.824;2022-09-11T13:50:31;-21913.56;;;22.98;52.19
19890;BME280;10107;51.198;6.824;2022-09-11T13:54:35;-21901.00;;;22.48;52.48
19890;BME280;10107;51.198;6.824;2022-09-11T13:58:38;-21891.78;;;22.12;52.75
19890;BME280;10107;51.198;6.824;2022-09-11T14:02:46;-21891.25;;;22.10;54.00
19890;BME280;10107;51.198;6.824;2022-09-11T14:06:49;-21897.88;;;22.36;52.74
19890;BME280;10107;51.198;6.824;2022-09-11T14:10:53;-21902.16;;;22.53;52.51
19890;BME280;10107;51.198;6.824;2022-09-11T14:15:02;-21906.31;;;22.69;51.17
19890;BME280;10107;51.198;6.824;2022-09-11T14:19:11;-21909.16;;;22.81;52.49
19890;BME280;10107;51.198;6.824;2022-09-11T14:23:23;-21911.75;;;22.91;51.05
19890;BME280;10107;51.198;6.824;2022-09-11T14:27:41;-21914.63;;;23.02;51.52
19890;BME280;10107;51.198;6.824;2022-09-11T14:31:43;-21913.56;;;22.98;52.23
19890;BME280;10107;51.198;6.824;2022-09-11T14:35:46;-21910.72;;;22.87;51.72
19890;BME280;10107;51.198;6.824;2022-09-11T14:39:53;-21907.75;;;22.75;52.93
19890;BME280;10107;51.198;6.824;2022-09-11T14:43:56;-21899.44;;;22.42;53.89
19890;BME280;10107;51.198;6.824;2022-09-11T14:47:58;-21893.97;;;22.21;55.14
19890;BME280;10107;51.198;6.824;2022-09-11T14:52:02;-21895.41;;;22.26;55.38
19890;BME280;10107;51.198;6.824;2022-09-11T14:56:04;-21896.19;;;22.29;57.04
19890;BME280;10107;51.198;6.824;2022-09-11T15:00:07;-21896.31;;;22.30;56.11
19890;BME280;10107;51.198;6.824;2022-09-11T15:04:14;-21893.84;;;22.20;56.70
19890;BME280;10107;51.198;6.824;2022-09-11T15:08:19;-21890.34;;;22.06;56.41
19890;BME280;10107;51.198;6.824;2022-09-11T15:12:21;-21885.81;;;21.88;57.38
19890;BME280;10107;51.198;6.824;2022-09-11T15:16:23;-21886.97;;;21.93;58.40
19890;BME280;10107;51.198;6.824;2022-09-11T15:20:25;-21884.91;;;21.85;58.13
19890;BME280;10107;51.198;6.824;2022-09-11T15:24:29;-21880.09;;;21.66;57.75
19890;BME280;10107;51.198;6.824;2022-09-11T15:28:31;-21882.03;;;21.73;58.43
19890;BME280;10107;51.198;6.824;2022-09-11T15:32:33;-21878.41;;;21.59;58.18
19890;BME280;10107;51.198;6.824;2022-09-11T15:36:35;-21875.16;;;21.46;59.37
19890;BME280;10107;51.198;6.824;2022-09-11T15:40:38;-21873.06;;;21.38;59.64
19890;BME280;10107;51.198;6.824;2022-09-11T15:44:40;-21869.16;;;21.23;59.46
19890;BME280;10107;51.198;6.824;2022-09-11T15:48:42;-21866.94;;;21.14;58.98
19890;BME280;10107;51.198;6.824;2022-09-11T15:52:44;-21864.34;;;21.04;59.79
19890;BME280;10107;51.198;6.824;2022-09-11T15:56:48;-21863.69;;;21.01;60.01
19890;BME280;10107;51.198;6.824;2022-09-11T16:00:49;-21863.56;;;21.01;60.20
19890;BME280;10107;51.198;6.824;2022-09-11T16:04:55;-21863.16;;;20.99;60.42
19890;BME280;10107;51.198;6.824;2022-09-11T16:08:57;-21863.69;;;21.01;61.15
19890;BME280;10107;51.198;6.824;2022-09-11T16:13:01;-21863.81;;;21.02;61.20
19890;BME280;10107;51.198;6.824;2022-09-11T16:17:03;-21863.44;;;21.00;60.46
19890;BME280;10107;51.198;6.824;2022-09-11T16:21:06;-21862.66;;;20.97;61.04
19890;BME280;10107;51.198;6.824;2022-09-11T16:25:08;-21862.00;;;20.94;61.32
19890;BME280;10107;51.198;6.824;2022-09-11T16:29:12;-21859.91;;;20.86;61.20
19890;BME280;10107;51.198;6.824;2022-09-11T16:33:17;-21857.84;;;20.78;61.53
19890;BME280;10107;51.198;6.824;2022-09-11T16:37:19;-21856.53;;;20.73;61.83
19890;BME280;10107;51.198;6.824;2022-09-11T16:41:21;-21855.09;;;20.67;62.48
19890;BME280;10107;51.198;6.824;2022-09-11T16:45:25;-21852.63;;;20.57;63.01
19890;BME280;10107;51.198;6.824;2022-09-11T16:49:27;-21850.66;;;20.50;63.51
19890;BME280;10107;51.198;6.824;2022-09-11T16:53:31;-21848.47;;;20.41;63.77
19890;BME280;10107;51.198;6.824;2022-09-11T16:57:34;-21846.25;;;20.32;64.12
19890;BME280;10107;51.198;6.824;2022-09-11T17:01:38;-21843.38;;;20.21;64.24
19890;BME280;10107;51.198;6.824;2022-09-11T17:05:45;-21840.63;;;20.10;64.71
19890;BME280;10107;51.198;6.824;2022-09-11T17:09:47;-21837.78;;;19.99;64.96
19890;BME280;10107;51.198;6.824;2022-09-11T17:13:49;-21835.81;;;19.91;65.28
19890;BME280;10107;51.198;6.824;2022-09-11T17:17:52;-21833.72;;;19.83;65.60
19890;BME280;10107;51.198;6.824;2022-09-11T17:21:55;-21830.59;;;19.71;66.26
19890;BME280;10107;51.198;6.824;2022-09-11T17:25:57;-21827.34;;;19.58;67.02
19890;BME280;10107;51.198;6.824;2022-09-11T17:30:00;-21823.69;;;19.44;67.64
19890;BME280;10107;51.198;6.824;2022-09-11T17:34:03;-21818.97;;;19.25;68.40
19890;BME280;10107;51.198;6.824;2022-09-11T17:38:05;-21815.84;;;19.13;69.09
19890;BME280;10107;51.198;6.824;2022-09-11T17:42:07;-21811.81;;;18.97;70.34
19890;BME280;10107;51.198;6.824;2022-09-11T17:46:10;-21807.50;;;18.80;71.96
19890;BME280;10107;51.198;6.824;2022-09-11T17:50:14;-21801.88;;;18.58;73.28
19890;BME280;10107;51.198;6.824;2022-09-11T17:54:16;-21796.13;;;18.35;75.14
19890;BME280;10107;51.198;6.824;2022-09-11T17:58:18;-21789.84;;;18.11;77.27
19890;BME280;10107;51.198;6.824;2022-09-11T18:02:20;-21784.34;;;17.89;79.25
19890;BME280;10107;51.198;6.824;2022-09-11T18:06:25;-21778.84;;;17.68;81.74
19890;BME280;10107;51.198;6.824;2022-09-11T18:10:28;-21774.53;;;17.51;82.96
19890;BME280;10107;51.198;6.824;2022-09-11T18:14:30;-21771.38;;;17.38;84.14
19890;BME280;10107;51.198;6.824;2022-09-11T18:18:32;-21768.75;;;17.28;85.31
19890;BME280;10107;51.198;6.824;2022-09-11T18:22:35;-21765.75;;;17.16;86.59
19890;BME280;10107;51.198;6.824;2022-09-11T18:26:38;-21761.94;;;17.01;88.64
19890;BME280;10107;51.198;6.824;2022-09-11T18:30:41;-21758.28;;;16.87;89.71
19890;BME280;10107;51.198;6.824;2022-09-11T18:34:44;-21754.47;;;16.72;90.60
19890;BME280;10107;51.198;6.824;2022-09-11T18:38:49;-21751.72;;;16.61;92.00
19890;BME280;10107;51.198;6.824;2022-09-11T18:42:51;-21749.34;;;16.52;93.46
19890;BME280;10107;51.198;6.824;2022-09-11T18:46:54;-21747.25;;;16.44;94.86
19890;BME280;10107;51.198;6.824;2022-09-11T18:50:56;-21745.16;;;16.36;95.45
19890;BME280;10107;51.198;6.824;2022-09-11T18:55:00;-21745.03;;;16.35;95.33
19890;BME280;10107;51.198;6.824;2022-09-11T18:59:02;-21746.34;;;16.40;95.19
19890;BME280;10107;51.198;6.824;2022-09-11T19:03:04;-21745.16;;;16.36;95.37
19890;BME280;10107;51.198;6.824;2022-09-11T19:07:06;-21742.66;;;16.26;95.98
19890;BME280;10107;51.198;6.824;2022-09-11T19:11:12;-21739.78;;;16.15;96.47
19890;BME280;10107;51.198;6.824;2022-09-11T19:15:15;-21737.03;;;16.04;97.19
19890;BME280;10107;51.198;6.824;2022-09-11T19:19:18;-21733.75;;;15.91;97.88
19890;BME280;10107;51.198;6.824;2022-09-11T19:23:19;-21731.91;;;15.84;98.69
19890;BME280;10107;51.198;6.824;2022-09-11T19:27:23;-21729.53;;;15.75;99.31
19890;BME280;10107;51.198;6.824;2022-09-11T19:31:27;-21727.44;;;15.67;99.88
19890;BME280;10107;51.198;6.824;2022-09-11T19:35:29;-21725.19;;;15.58;100.00
19890;BME280;10107;51.198;6.824;2022-09-11T19:39:31;-21723.63;;;15.52;100.00
19890;BME280;10107;51.198;6.824;2022-09-11T19:43:35;-21722.06;;;15.45;100.00
19890;BME280;10107;51.198;6.824;2022-09-11T19:47:37;-21720.22;;;15.38;100.00
19890;BME280;10107;51.198;6.824;2022-09-11T19:51:41;-21719.03;;;15.34;100.00
19890;BME280;10107;51.198;6.824;2022-09-11T19:55:44;-21718.09;;;15.30;100.00
19890;BME280;10107;51.198;6.824;2022-09-11T19:59:47;-21718.25;;;15.31;100.00
19890;BME280;10107;51.198;6.824;2022-09-11T20:03:50;-21717.72;;;15.29;100.00
19890;BME280;10107;51.198;6.824;2022-09-11T20:07:53;-21716.13;;;15.22;100.00
19890;BME280;10107;51.198;6.824;2022-09-11T20:11:55;-21713.91;;;15.14;100.00
19890;BME280;10107;51.198;6.824;2022-09-11T20:16:02;-21711.66;;;15.05;100.00
19890;BME280;10107;51.198;6.824;2022-09-11T20:20:04;-21710.09;;;14.99;100.00
19890;BME280;10107;51.198;6.824;2022-09-11T20:24:07;-21707.84;;;14.90;100.00
19890;BME280;10107;51.198;6.824;2022-09-11T20:28:09;-21706.81;;;14.86;100.00
19890;BME280;10107;51.198;6.824;2022-09-11T20:32:14;-21705.88;;;14.82;100.00
19890;BME280;10107;51.198;6.824;2022-09-11T20:36:18;-21704.81;;;14.78;100.00
19890;BME280;10107;51.198;6.824;2022-09-11T20:40:20;-21703.78;;;14.74;100.00
19890;BME280;10107;51.198;6.824;2022-09-11T20:44:21;-21702.47;;;14.69;100.00
19890;BME280;10107;51.198;6.824;2022-09-11T20:48:25;-21700.75;;;14.62;100.00
19890;BME280;10107;51.198;6.824;2022-09-11T20:52:27;-21699.69;;;14.58;100.00
19890;BME280;10107;51.198;6.824;2022-09-11T20:56:29;-21698.38;;;14.53;100.00
19890;BME280;10107;51.198;6.824;2022-09-11T21:00:31;-21697.06;;;14.48;100.00
19890;BME280;10107;51.198;6.824;2022-09-11T21:04:35;-21695.47;;;14.42;100.00
19890;BME280;10107;51.198;6.824;2022-09-11T21:08:37;-21694.28;;;14.37;100.00
19890;BME280;10107;51.198;6.824;2022-09-11T21:12:39;-21692.97;;;14.32;100.00
19890;BME280;10107;51.198;6.824;2022-09-11T21:16:41;-21692.31;;;14.30;100.00